Terminal Aerodrome Forecast
Issued by NWS

Home | Current Version | Previous Version | Text Only | Print | Product List | Glossary On
Versions: 1 2 3 4 5 6 7 8 9 10 11 12 13 14 15 16
000
FTUS46 KPQR 250534
TAFONP
TAF
KONP 250534Z 2506/2606 10012KT P6SM SCT080 OVC120
     FM251200 18014G24KT 4SM -RA SCT025 OVC050
     FM251800 18025G35KT 2SM -RA BR SCT018 BKN025 OVC045
     FM260100 20018G28KT 4SM -RA BR BKN015 OVC035=

USA.gov is the U.S. government's official web portal to all federal, state and local government web resources and services.